Time;durP1;ratioP1;P1;durP2;ratioP2;P2;SDS_P1;SDS_P2;PMS_P1;PMS_P2;Temp;Humidity;BMP_temperature;BMP_pressure;BME280_temperature;BME280_humidity;BME280_pressure;Samples;Min_cycle;Max_cycle;Signal;HPM_P1;HPM_P2
2022/09/21 00:00:07;;;;;;;1.00;0.90;;;6.30;99.90;6.00;97330.00;;;;5050934;28;20327;-86
2022/09/21 00:02:58;;;;;;;0.80;0.70;;;5.20;99.90;6.30;97334.00;;;;5051578;28;20638;-87
2022/09/21 00:05:46;;;;;;;0.50;0.50;;;5.60;99.90;6.30;97332.00;;;;5036939;28;20202;-88
2022/09/21 00:08:36;;;;;;;2.07;0.87;;;5.90;99.90;6.10;97331.00;;;;5037329;28;20212;-85
2022/09/21 00:11:27;;;;;;;1.23;1.00;;;5.30;99.90;5.60;97325.00;;;;5056100;28;20397;-85
2022/09/21 00:14:16;;;;;;;0.90;0.90;;;5.70;99.90;5.60;97321.00;;;;5052516;28;21667;-87
2022/09/21 00:17:05;;;;;;;1.23;1.00;;;5.20;99.90;5.40;97317.00;;;;5051578;28;20217;-89
2022/09/21 00:19:55;;;;;;;0.67;0.67;;;5.80;99.90;5.70;97330.00;;;;5047382;28;20729;-86
2022/09/21 00:22:44;;;;;;;0.90;0.90;;;5.00;99.90;5.70;97329.00;;;;5042317;28;20301;-86
2022/09/21 00:25:33;;;;;;;1.23;0.90;;;4.90;99.90;5.90;97329.00;;;;5038955;28;20201;-87
2022/09/21 00:28:21;;;;;;;1.43;1.00;;;5.90;99.90;5.90;97331.00;;;;5032956;28;20229;-87
2022/09/21 00:31:13;;;;;;;0.70;0.60;;;5.00;99.90;6.00;97334.00;;;;5051507;28;20193;-87
2022/09/21 00:34:02;;;;;;;2.83;1.43;;;5.30;99.90;6.00;97327.00;;;;5032484;28;20197;-88
2022/09/21 00:36:52;;;;;;;2.13;0.63;;;5.10;99.90;5.90;97331.00;;;;5034461;28;20282;-88
2022/09/21 00:39:41;;;;;;;0.60;0.60;;;5.90;99.90;5.90;97338.00;;;;5052988;28;20222;-87
2022/09/21 00:42:32;;;;;;;0.50;0.50;;;5.60;99.90;6.00;97335.00;;;;5041308;28;20189;-88
2022/09/21 00:45:21;;;;;;;3.23;0.90;;;5.10;99.90;5.90;97338.00;;;;5031896;28;20201;-86
2022/09/21 00:48:10;;;;;;;0.70;0.70;;;5.10;99.90;6.10;97341.00;;;;5045597;28;20203;-88
2022/09/21 00:51:06;;;;;;;0.90;0.67;;;5.10;99.90;6.10;97349.00;;;;5050423;28;20696;-86
2022/09/21 00:54:04;;;;;;;2.97;0.80;;;5.90;99.90;6.20;97342.00;;;;5050962;28;20188;-87
2022/09/21 00:56:54;;;;;;;0.90;0.67;;;5.40;99.90;6.10;97343.00;;;;5052947;28;20631;-86
2022/09/21 00:59:45;;;;;;;0.73;0.73;;;5.70;99.90;6.00;97346.00;;;;5050606;28;20294;-88
2022/09/21 01:02:34;;;;;;;0.53;0.53;;;5.20;99.90;6.20;97348.00;;;;5049883;28;20242;-88
2022/09/21 01:05:23;;;;;;;0.60;0.60;;;5.70;99.90;6.00;97354.00;;;;5050346;28;20339;-87
2022/09/21 01:08:14;;;;;;;0.50;0.50;;;5.40;99.90;5.90;97348.00;;;;5047246;28;20933;-89
2022/09/21 01:11:33;;;;;;;0.70;0.70;;;5.70;99.90;6.10;97354.00;;;;5032000;28;20247;-87
2022/09/21 01:14:50;;;;;;;3.50;0.50;;;5.60;99.90;5.90;97344.00;;;;5039478;28;20211;-88
2022/09/21 01:17:49;;;;;;;0.73;0.60;;;5.60;99.90;5.70;97342.00;;;;5051069;28;20222;-87
2022/09/21 01:21:13;;;;;;;0.67;0.60;;;5.50;99.90;5.80;97346.00;;;;5040020;28;20196;-85
2022/09/21 01:24:41;;;;;;;0.70;0.70;;;5.10;99.90;5.70;97347.00;;;;5030814;28;20666;-86
2022/09/21 01:28:01;;;;;;;0.50;0.50;;;5.00;99.90;5.50;97340.00;;;;5038603;28;20298;-88
2022/09/21 01:30:54;;;;;;;0.60;0.57;;;4.90;99.90;5.20;97354.00;;;;5034510;28;20193;-88
2022/09/21 01:33:49;;;;;;;0.60;0.60;;;5.30;99.90;5.10;97345.00;;;;5042889;28;20357;-86
2022/09/21 01:36:41;;;;;;;1.27;0.70;;;6.20;99.90;5.20;97341.00;;;;5049656;28;20710;-87
2022/09/21 01:39:33;;;;;;;0.47;0.47;;;5.10;99.90;5.30;97345.00;;;;5049516;28;21013;-88
2022/09/21 01:42:26;;;;;;;0.57;0.57;;;4.60;99.90;5.30;97348.00;;;;5046852;28;20278;-86
2022/09/21 01:45:18;;;;;;;1.20;0.73;;;4.60;99.90;5.60;97349.00;;;;5031618;28;20410;-86
2022/09/21 01:48:10;;;;;;;0.80;0.80;;;4.90;99.90;5.30;97353.00;;;;5029614;28;20208;-88
2022/09/21 01:51:02;;;;;;;0.63;0.63;;;2.90;99.90;5.30;97348.00;;;;5030740;28;20428;-86
2022/09/21 01:53:55;;;;;;;0.70;0.70;;;4.90;99.90;5.50;97354.00;;;;5050025;28;20208;-89
2022/09/21 01:56:48;;;;;;;0.77;0.77;;;5.80;99.90;5.70;97363.00;;;;5048708;28;20448;-86
2022/09/21 01:59:47;;;;;;;0.70;0.70;;;5.80;99.90;5.90;97360.00;;;;5044507;28;20268;-88
2022/09/21 02:02:44;;;;;;;1.00;1.00;;;5.00;99.90;5.40;97354.00;;;;5049455;28;20435;-88
2022/09/21 02:05:35;;;;;;;0.60;0.50;;;4.70;99.90;5.40;97360.00;;;;5049895;28;20232;-86
2022/09/21 02:08:25;;;;;;;0.60;0.60;;;4.70;99.90;5.40;97357.00;;;;5072617;23;20200;-70
2022/09/21 02:11:14;;;;;;;0.60;0.60;;;4.70;99.90;5.50;97352.00;;;;5027255;28;20213;-73
2022/09/21 02:14:04;;;;;;;0.87;0.60;;;4.70;99.90;5.20;97347.00;;;;5030039;28;20224;-73
2022/09/21 02:17:06;;;;;;;0.70;0.70;;;4.60;99.90;5.20;97344.00;;;;5047839;28;20192;-73
2022/09/21 02:20:06;;;;;;;0.60;0.60;;;4.60;99.90;5.20;97338.00;;;;5047958;28;20515;-72
2022/09/21 02:23:06;;;;;;;0.60;0.60;;;4.60;99.90;5.00;97347.00;;;;5046539;28;20197;-72
2022/09/21 02:26:03;;;;;;;0.47;0.47;;;4.50;99.90;5.10;97356.00;;;;5047947;28;20259;-72
2022/09/21 02:28:59;;;;;;;0.70;0.70;;;4.50;99.90;4.90;97354.00;;;;5044069;28;20423;-71
2022/09/21 02:31:52;;;;;;;0.80;0.80;;;4.40;99.90;4.90;97357.00;;;;5029683;28;20435;-72
2022/09/21 02:34:46;;;;;;;2.20;0.77;;;4.30;99.90;4.80;97347.00;;;;5032431;28;20447;-72
2022/09/21 02:37:42;;;;;;;0.53;0.53;;;4.30;99.90;5.10;97341.00;;;;5039973;28;20420;-72
2022/09/21 02:40:36;;;;;;;0.50;0.50;;;4.20;99.90;5.20;97341.00;;;;5052362;28;20427;-72
2022/09/21 02:43:28;;;;;;;0.60;0.60;;;4.30;99.90;5.40;97347.00;;;;5045732;28;20460;-73
2022/09/21 02:46:26;;;;;;;0.60;0.60;;;4.40;99.90;5.40;97348.00;;;;5051876;28;20200;-73
2022/09/21 02:49:20;;;;;;;0.50;0.50;;;4.60;99.90;5.50;97352.00;;;;5051403;28;20203;-72
2022/09/21 02:52:14;;;;;;;1.43;0.87;;;4.50;99.90;5.50;97347.00;;;;5050496;28;20966;-73
2022/09/21 02:55:05;;;;;;;1.13;0.63;;;4.50;99.90;5.50;97349.00;;;;5053209;23;20260;-87
2022/09/21 02:57:56;;;;;;;1.80;0.70;;;4.50;99.90;5.30;97341.00;;;;5050776;28;20278;-87
2022/09/21 03:00:45;;;;;;;0.47;0.47;;;5.40;99.90;5.20;97344.00;;;;5033890;28;20259;-88
2022/09/21 03:03:34;;;;;;;0.93;0.87;;;5.00;99.90;5.10;97358.00;;;;5032766;28;20205;-87
2022/09/21 03:06:23;;;;;;;0.47;0.47;;;4.40;99.90;5.00;97355.00;;;;5032898;28;20189;-88
2022/09/21 03:09:12;;;;;;;0.30;0.30;;;4.40;99.90;5.00;97358.00;;;;5051659;28;20454;-87
2022/09/21 03:12:01;;;;;;;1.40;0.50;;;5.00;99.90;5.00;97360.00;;;;5052495;28;20665;-88
2022/09/21 03:14:51;;;;;;;0.60;0.60;;;4.30;99.90;4.80;97356.00;;;;5047505;28;21089;-87
2022/09/21 03:17:40;;;;;;;0.47;0.47;;;4.20;99.90;4.70;97347.00;;;;5043061;28;20420;-87
2022/09/21 03:20:31;;;;;;;1.60;1.20;;;5.20;99.90;4.40;97352.00;;;;5033571;28;20965;-88
2022/09/21 03:23:20;;;;;;;1.43;1.33;;;4.40;99.90;4.40;97353.00;;;;5042823;28;20457;-88
2022/09/21 03:26:08;;;;;;;1.10;1.00;;;4.00;99.90;4.40;97365.00;;;;5052581;28;20471;-88
2022/09/21 03:28:57;;;;;;;0.93;0.83;;;4.60;99.90;4.70;97354.00;;;;5052007;28;20531;-87
2022/09/21 03:31:47;;;;;;;3.53;0.90;;;4.30;99.90;4.80;97360.00;;;;5048784;28;20779;-87
2022/09/21 03:34:36;;;;;;;0.60;0.60;;;3.90;99.90;4.30;97358.00;;;;5032316;28;20428;-88
2022/09/21 03:37:25;;;;;;;0.60;0.53;;;4.60;99.90;4.20;97347.00;;;;5035861;28;20864;-88
2022/09/21 03:40:14;;;;;;;0.60;0.53;;;3.80;99.90;4.20;97354.00;;;;5051735;28;20589;-87
2022/09/21 03:43:03;;;;;;;0.50;0.50;;;3.70;99.90;4.40;97358.00;;;;5037109;28;20969;-88
2022/09/21 03:45:52;;;;;;;0.67;0.67;;;5.20;99.90;4.30;97369.00;;;;5033308;28;20464;-87
2022/09/21 03:48:46;;;;;;;0.40;0.40;;;4.60;99.90;4.60;97361.00;;;;5032277;28;20534;-88
2022/09/21 03:51:35;;;;;;;0.43;0.43;;;4.30;99.90;4.50;97370.00;;;;5033405;28;20420;-88
2022/09/21 03:54:24;;;;;;;0.57;0.57;;;3.70;99.90;4.30;97358.00;;;;5031375;28;20486;-88
2022/09/21 03:57:13;;;;;;;0.73;0.60;;;4.30;99.90;4.10;97364.00;;;;5031594;28;20428;-88
2022/09/21 04:00:03;;;;;;;0.40;0.40;;;3.70;99.90;3.70;97367.00;;;;5032903;28;20447;-87
2022/09/21 04:02:52;;;;;;;0.80;0.80;;;3.50;99.90;4.00;97363.00;;;;5034679;28;20809;-88
2022/09/21 04:05:42;;;;;;;0.60;0.60;;;4.30;99.90;4.10;97362.00;;;;5034316;28;20460;-87
2022/09/21 04:08:32;;;;;;;0.60;0.60;;;4.60;99.90;4.40;97372.00;;;;5051639;28;20434;-88
2022/09/21 04:11:21;;;;;;;1.37;0.80;;;3.60;99.90;4.20;97380.00;;;;5039298;28;20432;-87
2022/09/21 04:14:12;;;;;;;0.50;0.50;;;4.40;99.90;4.00;97370.00;;;;5042089;28;20432;-87
2022/09/21 04:17:00;;;;;;;0.50;0.50;;;3.50;99.90;3.80;97371.00;;;;5044475;28;20510;-87
2022/09/21 04:19:49;;;;;;;0.53;0.53;;;3.40;99.90;3.90;97382.00;;;;5044138;28;20460;-85
2022/09/21 04:22:39;;;;;;;0.60;0.60;;;3.40;99.90;3.80;97384.00;;;;5030204;28;20427;-86
2022/09/21 04:25:31;;;;;;;0.70;0.70;;;3.30;99.90;3.80;97380.00;;;;5030550;28;20464;-87
2022/09/21 04:28:20;;;;;;;0.83;0.80;;;4.50;99.90;4.00;97374.00;;;;5032308;28;20485;-87
2022/09/21 04:31:08;;;;;;;0.90;0.90;;;3.30;99.90;4.20;97385.00;;;;5050084;28;20467;-87
2022/09/21 04:33:58;;;;;;;0.70;0.70;;;4.10;99.90;4.30;97372.00;;;;5036566;28;20444;-87
2022/09/21 04:36:46;;;;;;;0.53;0.53;;;3.40;99.90;4.30;97387.00;;;;5051929;28;20423;-86
2022/09/21 04:39:37;;;;;;;2.90;0.80;;;3.40;99.90;4.30;97377.00;;;;5035073;28;20451;-87
2022/09/21 04:42:26;;;;;;;2.60;0.60;;;3.50;99.90;4.10;97375.00;;;;5030182;28;20463;-88
2022/09/21 04:45:15;;;;;;;1.83;1.67;;;3.50;99.90;3.80;97381.00;;;;5035838;28;20459;-89
2022/09/21 04:48:04;;;;;;;3.77;3.20;;;3.40;99.90;3.80;97394.00;;;;5038449;28;20945;-89
2022/09/21 04:50:53;;;;;;;5.13;2.53;;;3.40;99.90;4.10;97404.00;;;;5039708;28;20417;-90
2022/09/21 04:53:43;;;;;;;2.33;2.07;;;3.70;99.90;4.30;97407.00;;;;5037809;28;20416;-89
2022/09/21 04:56:33;;;;;;;2.57;2.17;;;3.30;99.90;4.30;97409.00;;;;5040223;28;20940;-89
2022/09/21 04:59:22;;;;;;;2.10;1.90;;;3.40;99.90;4.10;97392.00;;;;5038752;28;20441;-88
2022/09/21 05:02:11;;;;;;;1.63;1.20;;;3.40;99.90;3.50;97386.00;;;;5034335;28;20451;-89
2022/09/21 05:05:00;;;;;;;1.07;1.00;;;4.30;99.90;3.60;97399.00;;;;5036834;28;20456;-88
2022/09/21 05:07:48;;;;;;;2.07;0.93;;;3.20;99.90;3.90;97405.00;;;;5030090;28;20413;-89
2022/09/21 05:10:36;;;;;;;1.23;1.13;;;5.00;99.90;4.20;97402.00;;;;5031620;28;20885;-89
2022/09/21 05:13:26;;;;;;;3.53;1.40;;;5.00;99.90;4.10;97403.00;;;;5031512;28;20427;-89
2022/09/21 05:16:16;;;;;;;0.63;0.63;;;3.30;99.90;3.70;97403.00;;;;5029936;28;20510;-89
2022/09/21 05:19:05;;;;;;;3.00;0.90;;;4.30;99.90;3.80;97412.00;;;;5033059;28;20829;-89
2022/09/21 05:21:53;;;;;;;0.70;0.70;;;3.90;99.90;3.50;97403.00;;;;5027544;28;20444;-90
2022/09/21 05:24:42;;;;;;;0.70;0.70;;;4.10;99.90;3.40;97394.00;;;;5029152;28;20425;-89
2022/09/21 05:27:31;;;;;;;0.90;0.90;;;3.10;99.90;3.60;97395.00;;;;5029720;28;20854;-89
2022/09/21 05:30:23;;;;;;;0.73;0.73;;;3.10;99.90;3.40;97404.00;;;;5036038;28;20435;-89
2022/09/21 05:33:17;;;;;;;3.90;1.00;;;3.10;99.90;3.80;97399.00;;;;5049480;28;20424;-89
2022/09/21 05:36:26;;;;;;;1.17;1.07;;;4.30;99.90;4.20;97408.00;;;;5049263;28;20733;-89
2022/09/21 05:39:15;;;;;;;0.77;0.77;;;4.40;99.90;4.40;97419.00;;;;5037697;28;20443;-89
2022/09/21 05:42:05;;;;;;;1.43;1.33;;;3.50;99.90;4.60;97414.00;;;;5028044;28;20448;-88
2022/09/21 05:44:55;;;;;;;0.70;0.70;;;3.60;99.90;4.50;97413.00;;;;5026285;28;20487;-89
2022/09/21 05:47:57;;;;;;;1.10;1.00;;;3.70;99.90;4.40;97413.00;;;;5025703;28;20425;-88
2022/09/21 05:51:02;;;;;;;1.27;0.80;;;3.80;99.90;4.50;97418.00;;;;5023509;28;20901;-89
2022/09/21 05:54:00;;;;;;;0.70;0.70;;;4.50;99.90;4.60;97429.00;;;;5029902;28;20432;-89
2022/09/21 05:56:56;;;;;;;0.77;0.77;;;4.60;99.90;4.60;97426.00;;;;5025929;28;20446;-89
2022/09/21 06:00:01;;;;;;;1.07;1.00;;;3.90;99.90;4.30;97430.00;;;;5034315;28;20436;-89
2022/09/21 06:03:27;;;;;;;0.90;0.90;;;3.90;99.90;4.60;97423.00;;;;5021673;28;20535;-89
2022/09/21 06:06:17;;;;;;;0.97;0.97;;;3.90;99.90;4.30;97422.00;;;;5031876;28;20464;-90
2022/09/21 06:09:05;;;;;;;1.30;1.20;;;3.90;99.90;4.60;97427.00;;;;5044499;28;20490;-90
2022/09/21 06:11:54;;;;;;;1.97;0.80;;;4.10;99.90;4.50;97429.00;;;;5049061;28;20427;-89
2022/09/21 06:14:43;;;;;;;0.80;0.73;;;5.40;99.90;4.60;97424.00;;;;5048633;28;20443;-89
2022/09/21 06:17:33;;;;;;;0.90;0.90;;;5.00;99.90;4.90;97440.00;;;;5041266;28;20492;-88
2022/09/21 06:20:24;;;;;;;0.80;0.73;;;4.10;99.90;5.30;97439.00;;;;5044825;28;20540;-89
2022/09/21 06:23:14;;;;;;;0.77;0.60;;;4.30;99.90;5.40;97437.00;;;;5044143;28;20439;-89
2022/09/21 06:26:03;;;;;;;1.20;1.10;;;4.50;99.90;5.80;97441.00;;;;5039906;28;20475;-88
2022/09/21 06:28:52;;;;;;;2.10;1.17;;;4.70;99.90;6.10;97435.00;;;;5039261;28;20213;-89
2022/09/21 06:31:41;;;;;;;0.80;0.80;;;4.90;99.90;6.40;97429.00;;;;5033801;28;20506;-90
2022/09/21 06:34:30;;;;;;;1.00;0.90;;;5.10;99.90;6.50;97426.00;;;;5034014;28;20632;-91
2022/09/21 06:37:20;;;;;;;0.70;0.70;;;6.50;99.90;6.50;97428.00;;;;5042332;28;20235;-91
2022/09/21 06:40:10;;;;;;;0.90;0.90;;;5.60;99.90;6.40;97424.00;;;;5047639;28;20216;-91
2022/09/21 06:43:00;;;;;;;0.80;0.80;;;5.50;99.90;6.50;97415.00;;;;5038888;28;20240;-91
2022/09/21 06:45:57;;;;;;;0.80;0.80;;;5.60;99.90;6.80;97421.00;;;;5040015;28;20831;-90
2022/09/21 06:48:47;;;;;;;1.00;0.80;;;5.70;99.90;6.90;97410.00;;;;5033973;28;20217;-90
2022/09/21 06:51:36;;;;;;;1.63;1.03;;;5.90;99.90;7.10;97414.00;;;;5036744;28;20198;-90
2022/09/21 06:54:26;;;;;;;0.67;0.63;;;6.30;99.90;7.70;97425.00;;;;5054718;28;20212;-90
2022/09/21 06:57:15;;;;;;;1.03;0.67;;;7.30;99.90;8.10;97418.00;;;;5066690;28;20215;-90
2022/09/21 07:00:06;;;;;;;1.97;1.13;;;6.50;99.90;8.20;97426.00;;;;5068408;28;20228;-90
2022/09/21 07:02:54;;;;;;;0.83;0.83;;;6.70;99.90;8.40;97424.00;;;;5051515;28;20586;-91
2022/09/21 07:05:45;;;;;;;1.47;1.10;;;6.90;99.90;8.70;97425.00;;;;5061062;28;20286;-90
2022/09/21 07:08:35;;;;;;;1.50;1.00;;;7.10;99.90;9.10;97429.00;;;;5053441;28;20208;-91
2022/09/21 07:11:46;;;;;;;3.03;1.30;;;7.40;99.90;9.00;97426.00;;;;5046793;28;20188;-91
2022/09/21 07:14:35;;;;;;;5.93;1.10;;;7.70;99.90;9.30;97430.00;;;;5054074;28;20192;-91
2022/09/21 07:17:23;;;;;;;7.60;4.47;;;7.80;99.90;9.50;97438.00;;;;5056091;28;20196;-90
2022/09/21 07:20:12;;;;;;;2.40;1.73;;;8.00;99.90;9.70;97443.00;;;;5061096;28;20286;-91
2022/09/21 07:23:01;;;;;;;2.23;1.30;;;8.20;99.90;10.10;97449.00;;;;5052817;28;20236;-90
2022/09/21 07:25:51;;;;;;;3.60;1.83;;;8.40;99.90;10.50;97450.00;;;;5067694;28;20603;-91
2022/09/21 07:28:42;;;;;;;2.40;1.87;;;8.70;99.90;10.70;97451.00;;;;5062904;28;20224;-88
2022/09/21 07:31:30;;;;;;;4.90;1.83;;;8.90;99.90;10.80;97455.00;;;;5054298;28;20205;-90
2022/09/21 07:34:19;;;;;;;4.23;1.47;;;9.10;99.90;11.20;97459.00;;;;5072690;28;20696;-90
2022/09/21 07:37:08;;;;;;;2.27;1.50;;;9.40;99.90;11.50;97456.00;;;;5067024;28;20474;-88
2022/09/21 07:39:57;;;;;;;1.63;1.50;;;9.60;99.90;11.60;97455.00;;;;5067452;28;20216;-89
2022/09/21 07:42:46;;;;;;;4.37;1.47;;;9.80;99.90;11.80;97457.00;;;;5054181;28;20199;-90
2022/09/21 07:45:37;;;;;;;3.83;1.63;;;10.00;99.90;12.00;97461.00;;;;5070451;28;20188;-89
2022/09/21 07:48:26;;;;;;;4.90;2.30;;;10.20;99.90;12.20;97463.00;;;;5069004;28;20231;-89
2022/09/21 07:51:16;;;;;;;2.30;1.57;;;10.40;99.90;12.40;97460.00;;;;5058218;28;20218;-89
2022/09/21 07:54:05;;;;;;;1.40;1.30;;;10.70;99.90;12.60;97454.00;;;;5061440;28;20219;-89
2022/09/21 08:00:00;;;;;;;2.30;1.63;;;11.00;99.90;13.10;97455.00;;;;5059847;28;20224;-89
2022/09/21 08:02:50;;;;;;;1.43;1.30;;;11.20;99.90;13.30;97456.00;;;;5062161;28;20628;-89
2022/09/21 08:05:39;;;;;;;1.70;1.60;;;11.50;99.90;13.50;97470.00;;;;5065411;28;20195;-89
2022/09/21 08:08:28;;;;;;;3.73;1.37;;;11.60;99.90;13.70;97463.00;;;;5058291;28;20221;-88
2022/09/21 08:11:21;;;;;;;2.70;1.70;;;11.90;99.90;14.00;97463.00;;;;5063225;28;20457;-89
2022/09/21 08:14:18;;;;;;;3.27;1.00;;;12.10;99.90;14.20;97458.00;;;;5060771;28;20211;-91
2022/09/21 08:17:11;;;;;;;3.03;1.00;;;12.40;99.90;14.50;97465.00;;;;5059821;28;20204;-90
2022/09/21 08:20:02;;;;;;;3.23;1.30;;;12.60;99.90;14.80;97467.00;;;;5063761;28;20709;-89
2022/09/21 08:22:52;;;;;;;2.93;1.23;;;12.80;99.90;15.00;97454.00;;;;5082907;22;20230;-87
2022/09/21 08:25:41;;;;;;;1.07;0.90;;;13.00;99.90;15.40;97460.00;;;;5064990;28;20284;-87
2022/09/21 08:28:31;;;;;;;2.07;0.60;;;13.30;99.90;15.60;97455.00;;;;5061673;28;20220;-86
2022/09/21 08:31:22;;;;;;;0.93;0.73;;;13.60;99.90;16.00;97452.00;;;;5069902;28;20200;-87
2022/09/21 08:34:11;;;;;;;1.73;0.80;;;13.80;99.90;16.20;97450.00;;;;5086502;22;20238;-77
2022/09/21 08:37:01;;;;;;;0.70;0.63;;;14.10;99.90;16.30;97448.00;;;;5079621;28;20206;-78
2022/09/21 08:39:50;;;;;;;1.27;0.80;;;14.30;99.90;16.70;97452.00;;;;5080858;28;20309;-78
2022/09/21 08:42:45;;;;;;;0.80;0.80;;;14.60;99.90;16.90;97452.00;;;;5075367;28;20244;-77
2022/09/21 08:45:42;;;;;;;1.47;0.90;;;14.80;99.90;17.00;97443.00;;;;5073844;28;20219;-77
2022/09/21 08:48:39;;;;;;;1.90;1.07;;;15.10;99.90;17.40;97456.00;;;;5072612;28;20223;-78
2022/09/21 08:51:32;;;;;;;0.43;0.43;;;15.30;99.90;17.20;97456.00;;;;5081669;28;20218;-77
2022/09/21 08:54:29;;;;;;;0.50;0.50;;;15.50;99.90;16.90;97459.00;;;;5076844;28;20234;-76
2022/09/21 08:57:19;;;;;;;0.70;0.60;;;15.50;97.00;16.40;97461.00;;;;5077916;22;20267;-89
2022/09/21 09:00:15;;;;;;;0.73;0.67;;;15.30;96.00;17.10;97457.00;;;;5071386;28;20195;-86
2022/09/21 09:03:40;;;;;;;1.37;0.83;;;15.40;96.30;17.30;97462.00;;;;5067848;28;20227;-85
2022/09/21 09:06:39;;;;;;;0.50;0.50;;;15.60;96.10;17.20;97457.00;;;;5066833;28;20253;-85
2022/09/21 09:10:07;;;;;;;0.90;0.80;;;15.70;94.60;17.60;97458.00;;;;5056485;28;20234;-87
2022/09/21 09:13:10;;;;;;;2.10;0.57;;;15.80;95.00;16.60;97445.00;;;;5062323;28;20218;-86
2022/09/21 09:16:12;;;;;;;2.93;0.90;;;15.70;92.30;16.90;97460.00;;;;5067551;28;20191;-87
2022/09/21 09:19:14;;;;;;;2.30;0.50;;;15.60;93.20;18.00;97438.00;;;;5048967;28;20226;-87
2022/09/21 09:22:06;;;;;;;0.57;0.50;;;15.80;93.80;17.10;97450.00;;;;5053329;28;20199;-88
2022/09/21 09:25:03;;;;;;;0.77;0.60;;;16.00;91.00;18.10;97446.00;;;;5069541;28;20212;-89
2022/09/21 09:27:54;;;;;;;0.73;0.60;;;16.20;90.90;18.80;97469.00;;;;5066922;28;20226;-90
2022/09/21 09:30:43;;;;;;;1.73;0.80;;;16.50;91.10;17.90;97432.00;;;;5050595;28;20229;-89
2022/09/21 09:33:48;;;;;;;0.60;0.47;;;16.50;84.90;18.10;97452.00;;;;5049850;28;20288;-87
2022/09/21 09:36:40;;;;;;;0.53;0.50;;;16.70;87.10;17.70;97456.00;;;;5051132;28;20274;-89
2022/09/21 09:39:51;;;;;;;0.40;0.40;;;16.60;85.10;17.90;97471.00;;;;5068470;28;20239;-88
2022/09/21 09:42:54;;;;;;;1.00;0.70;;;16.60;82.80;17.30;97442.00;;;;5060220;28;20239;-86
2022/09/21 09:45:57;;;;;;;1.33;0.40;;;16.30;80.20;17.30;97463.00;;;;5068816;28;20206;-86
2022/09/21 09:49:16;;;;;;;0.93;0.30;;;16.10;82.60;17.10;97464.00;;;;5069342;28;20223;-87
2022/09/21 09:52:06;;;;;;;1.00;0.57;;;16.00;82.40;16.50;97456.00;;;;5065066;28;20205;-88
2022/09/21 09:54:54;;;;;;;0.40;0.40;;;15.70;81.40;15.70;97454.00;;;;5050134;28;20242;-87
2022/09/21 09:57:44;;;;;;;1.47;0.53;;;15.30;79.70;16.50;97463.00;;;;5064583;28;20288;-86
2022/09/21 10:00:33;;;;;;;2.00;0.70;;;15.20;81.60;16.30;97455.00;;;;5050783;28;20204;-86
2022/09/21 10:03:24;;;;;;;0.53;0.40;;;15.20;81.60;15.90;97453.00;;;;5048802;28;20702;-86
2022/09/21 10:06:32;;;;;;;0.60;0.60;;;15.00;81.20;16.20;97454.00;;;;5055140;28;20685;-87
2022/09/21 10:09:26;;;;;;;0.40;0.40;;;15.00;82.40;16.80;97451.00;;;;5054021;28;20219;-86
2022/09/21 10:12:23;;;;;;;0.30;0.30;;;15.10;85.30;16.80;97463.00;;;;5065388;28;20208;-88
2022/09/21 10:15:14;;;;;;;0.40;0.40;;;15.20;83.70;17.00;97457.00;;;;5061533;28;20201;-86
2022/09/21 10:18:07;;;;;;;0.57;0.57;;;15.30;83.70;17.00;97453.00;;;;5057847;28;20669;-88
2022/09/21 10:21:01;;;;;;;0.73;0.47;;;15.40;83.40;17.60;97420.00;;;;5054221;28;20201;-86
2022/09/21 10:23:53;;;;;;;1.40;0.47;;;15.60;82.50;19.00;97421.00;;;;5064768;28;20602;-90
2022/09/21 10:26:47;;;;;;;0.50;0.50;;;16.30;83.10;18.80;97436.00;;;;5068011;28;20336;-89
2022/09/21 10:29:42;;;;;;;0.50;0.47;;;16.70;81.20;19.30;97446.00;;;;5061839;28;20310;-89
2022/09/21 10:32:32;;;;;;;0.40;0.40;;;17.00;79.30;18.10;97449.00;;;;5061798;28;21107;-89
2022/09/21 10:35:21;;;;;;;0.40;0.40;;;17.00;77.50;18.80;97417.00;;;;5067442;28;20254;-89
2022/09/21 10:38:12;;;;;;;0.50;0.40;;;17.10;78.50;20.30;97415.00;;;;5057507;28;20221;-87
2022/09/21 10:41:01;;;;;;;0.43;0.43;;;17.60;80.40;19.70;97409.00;;;;5048006;28;20280;-87
2022/09/21 10:43:50;;;;;;;0.70;0.40;;;17.80;78.90;20.50;97439.00;;;;5046863;28;20212;-89
2022/09/21 10:46:39;;;;;;;2.07;0.50;;;18.30;77.00;19.10;97460.00;;;;5051122;28;20201;-90
2022/09/21 10:49:30;;;;;;;0.80;0.60;;;18.40;73.50;19.10;97469.00;;;;5066490;28;20220;-91
2022/09/21 10:52:23;;;;;;;0.50;0.50;;;18.00;75.90;18.40;97444.00;;;;5050740;28;20609;-88
2022/09/21 10:55:17;;;;;;;1.80;0.60;;;17.80;73.40;17.30;97459.00;;;;5072027;28;20670;-89
2022/09/21 10:58:10;;;;;;;0.30;0.30;;;17.20;74.40;17.80;97467.00;;;;5070847;28;20298;-88
2022/09/21 11:01:12;;;;;;;0.40;0.40;;;16.80;74.60;17.20;97450.00;;;;5072140;28;20207;-91
2022/09/21 11:04:06;;;;;;;0.30;0.30;;;16.60;77.20;20.00;97465.00;;;;5052766;28;20219;-88
2022/09/21 11:07:03;;;;;;;0.67;0.50;;;17.00;77.50;18.40;97466.00;;;;5055656;28;20321;-89
2022/09/21 11:10:00;;;;;;;0.37;0.30;;;17.10;73.20;18.20;97394.00;;;;5051955;28;20248;-88
2022/09/21 11:13:00;;;;;;;1.13;0.47;;;16.90;71.30;19.60;97416.00;;;;5051807;28;20223;-88
2022/09/21 11:16:04;;;;;;;0.40;0.37;;;17.30;74.40;19.80;97398.00;;;;5051653;28;20553;-90
2022/09/21 11:19:04;;;;;;;0.43;0.40;;;17.80;73.80;20.40;97450.00;;;;5070651;28;20195;-90
2022/09/21 11:22:04;;;;;;;0.50;0.50;;;18.30;71.80;20.50;97396.00;;;;5054394;28;20211;-89
2022/09/21 11:25:02;;;;;;;0.57;0.40;;;18.60;71.60;22.30;97397.00;;;;5064034;28;20192;-88
2022/09/21 11:27:58;;;;;;;0.53;0.30;;;19.40;72.00;23.20;97401.00;;;;5062848;28;20224;-91
2022/09/21 11:31:16;;;;;;;0.20;0.20;;;20.20;70.40;23.00;97397.00;;;;5056575;28;20187;-90
2022/09/21 11:34:36;;;;;;;0.87;0.20;;;21.00;64.80;21.70;97453.00;;;;5058199;28;20200;-89
2022/09/21 11:37:50;;;;;;;0.67;0.30;;;20.90;62.30;21.40;97455.00;;;;5048696;28;20250;-86
2022/09/21 11:41:15;;;;;;;0.77;0.30;;;20.40;62.90;20.40;97422.00;;;;5070579;28;20228;-91
2022/09/21 11:44:36;;;;;;;0.30;0.30;;;20.10;61.20;20.90;97450.00;;;;5061716;28;20216;-90
2022/09/21 11:47:55;;;;;;;0.57;0.30;;;20.10;61.80;21.30;97464.00;;;;5062695;28;20693;-89
2022/09/21 11:50:56;;;;;;;0.47;0.20;;;20.10;63.00;19.70;97461.00;;;;5063416;28;20287;-88
2022/09/21 11:54:14;;;;;;;0.30;0.30;;;19.50;61.80;19.60;97460.00;;;;5058681;28;20623;-88
2022/09/21 11:57:15;;;;;;;0.30;0.30;;;19.00;63.70;19.60;97465.00;;;;5058551;28;20208;-88
2022/09/21 12:00:17;;;;;;;0.30;0.30;;;18.70;65.50;19.30;97465.00;;;;5068063;28;20222;-89
2022/09/21 12:03:41;;;;;;;0.50;0.30;;;18.40;64.20;16.50;97454.00;;;;5061860;28;20227;-87
2022/09/21 12:06:54;;;;;;;0.67;0.50;;;17.80;62.60;17.20;97459.00;;;;5068021;28;20207;-88
2022/09/21 12:10:30;;;;;;;1.13;0.20;;;17.00;65.70;17.30;97445.00;;;;5056300;28;20215;-85
2022/09/21 12:13:30;;;;;;;1.23;0.40;;;16.50;67.60;17.40;97445.00;;;;5055422;28;20236;-85
2022/09/21 12:16:29;;;;;;;0.60;0.50;;;16.30;67.80;16.60;97448.00;;;;5053746;28;20204;-88
2022/09/21 12:19:29;;;;;;;2.17;0.53;;;16.10;67.70;17.30;97445.00;;;;5064484;28;20207;-88
2022/09/21 12:22:24;;;;;;;0.93;0.40;;;16.00;68.80;17.50;97441.00;;;;5059366;28;20208;-87
2022/09/21 12:25:21;;;;;;;0.47;0.47;;;16.00;69.50;20.20;97359.00;;;;5059556;28;20255;-88
2022/09/21 12:28:21;;;;;;;0.40;0.40;;;16.70;71.60;20.50;97365.00;;;;5062721;28;20201;-89
2022/09/21 12:31:17;;;;;;;0.20;0.20;;;17.80;66.90;23.00;97374.00;;;;5057946;28;20303;-88
2022/09/21 12:34:14;;;;;;;2.43;0.30;;;18.90;67.50;22.00;97423.00;;;;5061195;28;20212;-89
2022/09/21 12:37:09;;;;;;;0.37;0.10;;;19.80;61.60;19.60;97397.00;;;;5058208;28;20688;-89
2022/09/21 12:40:06;;;;;;;0.20;0.20;;;19.50;60.00;21.40;97360.00;;;;5062327;28;20747;-89
2022/09/21 12:43:03;;;;;;;0.67;0.30;;;19.40;60.00;22.50;97354.00;;;;5056443;28;20224;-87
2022/09/21 12:45:57;;;;;;;0.50;0.30;;;20.10;60.60;24.10;97359.00;;;;5059499;28;20199;-87
2022/09/21 12:48:46;;;;;;;0.43;0.20;;;20.90;60.00;24.70;97351.00;;;;5056221;28;20208;-88
2022/09/21 12:51:41;;;;;;;0.60;0.30;;;21.60;58.50;26.20;97349.00;;;;5053943;28;20208;-85
2022/09/21 12:54:45;;;;;;;0.97;0.30;;;22.50;58.90;25.40;97337.00;;;;5056880;28;20297;-88
2022/09/21 12:57:50;;;;;;;0.20;0.20;;;23.40;56.40;26.30;97375.00;;;;5053536;28;20345;-88
2022/09/21 13:01:05;;;;;;;0.30;0.30;;;23.70;55.60;26.60;97379.00;;;;5049332;28;20669;-89
2022/09/21 13:04:16;;;;;;;0.53;0.10;;;24.10;54.70;25.50;97420.00;;;;5050608;28;20236;-86
2022/09/21 13:07:33;;;;;;;0.50;0.50;;;24.10;53.40;24.90;97412.00;;;;5051808;28;20253;-89